sensor_id;sensor_type;location;lat;lon;timestamp;pressure;altitude;pressure_sealevel;temperature;humidity
11830;BME280;5972;42.134;24.718;2023-02-12T00:02:06;100708.41;;;2.00;47.99
11830;BME280;5972;42.134;24.718;2023-02-12T00:04:33;100690.50;;;2.01;48.32
11830;BME280;5972;42.134;24.718;2023-02-12T00:06:59;100699.06;;;2.08;47.52
11830;BME280;5972;42.134;24.718;2023-02-12T00:09:27;100706.06;;;2.14;47.19
11830;BME280;5972;42.134;24.718;2023-02-12T00:11:54;100697.00;;;2.15;47.72
11830;BME280;5972;42.134;24.718;2023-02-12T00:14:21;100649.38;;;1.97;46.99
11830;BME280;5972;42.134;24.718;2023-02-12T00:16:48;100675.63;;;2.15;46.84
11830;BME280;5972;42.134;24.718;2023-02-12T00:19:14;100673.75;;;2.16;46.38
11830;BME280;5972;42.134;24.718;2023-02-12T00:21:41;100684.44;;;2.16;46.26
11830;BME280;5972;42.134;24.718;2023-02-12T00:24:08;100669.72;;;2.13;45.70
11830;BME280;5972;42.134;24.718;2023-02-12T00:26:36;100670.31;;;2.20;45.00
11830;BME280;5972;42.134;24.718;2023-02-12T00:29:03;100671.16;;;2.31;43.85
11830;BME280;5972;42.134;24.718;2023-02-12T00:31:31;100663.97;;;2.41;42.98
11830;BME280;5972;42.134;24.718;2023-02-12T00:33:58;100634.63;;;2.46;42.79
11830;BME280;5972;42.134;24.718;2023-02-12T00:36:27;100661.13;;;2.68;42.87
11830;BME280;5972;42.134;24.718;2023-02-12T00:38:55;100645.66;;;2.75;42.74
11830;BME280;5972;42.134;24.718;2023-02-12T00:41:22;100646.47;;;2.86;42.59
11830;BME280;5972;42.134;24.718;2023-02-12T00:43:51;100640.59;;;2.94;42.07
11830;BME280;5972;42.134;24.718;2023-02-12T00:46:18;100645.41;;;3.02;42.11
11830;BME280;5972;42.134;24.718;2023-02-12T00:48:45;100637.69;;;3.11;41.53
11830;BME280;5972;42.134;24.718;2023-02-12T00:51:12;100637.44;;;3.17;41.35
11830;BME280;5972;42.134;24.718;2023-02-12T00:53:39;100633.41;;;3.20;41.24
11830;BME280;5972;42.134;24.718;2023-02-12T00:56:06;100639.28;;;3.27;41.13
11830;BME280;5972;42.134;24.718;2023-02-12T00:58:33;100637.66;;;3.31;40.97
11830;BME280;5972;42.134;24.718;2023-02-12T01:01:01;100621.63;;;3.36;40.61
11830;BME280;5972;42.134;24.718;2023-02-12T01:03:28;100604.25;;;3.28;40.32
11830;BME280;5972;42.134;24.718;2023-02-12T01:05:55;100625.91;;;3.42;40.05
11830;BME280;5972;42.134;24.718;2023-02-12T01:08:22;100630.72;;;3.45;40.08
11830;BME280;5972;42.134;24.718;2023-02-12T01:10:55;100615.72;;;3.49;39.97
11830;BME280;5972;42.134;24.718;2023-02-12T01:13:22;100610.09;;;3.56;39.87
11830;BME280;5972;42.134;24.718;2023-02-12T01:16:01;100598.31;;;3.47;39.53
11830;BME280;5972;42.134;24.718;2023-02-12T01:18:31;100609.56;;;3.54;39.97
11830;BME280;5972;42.134;24.718;2023-02-12T01:20:57;100617.06;;;3.62;40.21
11830;BME280;5972;42.134;24.718;2023-02-12T01:23:25;100557.16;;;3.32;39.78
11830;BME280;5972;42.134;24.718;2023-02-12T01:25:52;100607.13;;;3.62;39.90
11830;BME280;5972;42.134;24.718;2023-02-12T01:28:19;100588.97;;;3.54;39.79
11830;BME280;5972;42.134;24.718;2023-02-12T01:30:46;100612.22;;;3.64;39.82
11830;BME280;5972;42.134;24.718;2023-02-12T01:33:14;100608.22;;;3.66;39.73
11830;BME280;5972;42.134;24.718;2023-02-12T01:35:41;100602.31;;;3.64;39.13
11830;BME280;5972;42.134;24.718;2023-02-12T01:38:07;100582.25;;;3.52;38.98
11830;BME280;5972;42.134;24.718;2023-02-12T01:40:36;100600.97;;;3.67;38.79
11830;BME280;5972;42.134;24.718;2023-02-12T01:43:03;100597.50;;;3.66;38.94
11830;BME280;5972;42.134;24.718;2023-02-12T01:45:50;100595.91;;;3.65;38.83
11830;BME280;5972;42.134;24.718;2023-02-12T01:48:23;100588.41;;;3.67;39.04
11830;BME280;5972;42.134;24.718;2023-02-12T01:50:52;100542.19;;;3.31;38.94
11830;BME280;5972;42.134;24.718;2023-02-12T01:53:21;100588.13;;;3.64;38.92
11830;BME280;5972;42.134;24.718;2023-02-12T01:55:52;100568.34;;;3.60;38.43
11830;BME280;5972;42.134;24.718;2023-02-12T01:58:21;100571.78;;;3.70;38.26
11830;BME280;5972;42.134;24.718;2023-02-12T02:00:49;100571.22;;;3.73;38.01
11830;BME280;5972;42.134;24.718;2023-02-12T02:03:16;100573.38;;;3.76;38.15
11830;BME280;5972;42.134;24.718;2023-02-12T02:05:51;100563.75;;;3.70;38.22
11830;BME280;5972;42.134;24.718;2023-02-12T02:08:21;100576.63;;;3.63;38.22
11830;BME280;5972;42.134;24.718;2023-02-12T02:10:48;100579.59;;;3.47;38.80
11830;BME280;5972;42.134;24.718;2023-02-12T02:13:15;100565.97;;;3.43;38.58
11830;BME280;5972;42.134;24.718;2023-02-12T02:16:02;100567.81;;;3.53;38.41
11830;BME280;5972;42.134;24.718;2023-02-12T02:18:37;100557.44;;;3.26;38.53
11830;BME280;5972;42.134;24.718;2023-02-12T02:21:45;100568.91;;;3.37;38.53
11830;BME280;5972;42.134;24.718;2023-02-12T02:24:30;100579.59;;;3.42;38.09
11830;BME280;5972;42.134;24.718;2023-02-12T02:27:14;100584.72;;;3.38;38.25
11830;BME280;5972;42.134;24.718;2023-02-12T02:30:06;100587.09;;;3.29;38.49
11830;BME280;5972;42.134;24.718;2023-02-12T02:32:38;100592.44;;;3.34;38.37
11830;BME280;5972;42.134;24.718;2023-02-12T02:35:11;100570.00;;;3.20;38.46
11830;BME280;5972;42.134;24.718;2023-02-12T02:37:46;100547.84;;;3.10;38.06
11830;BME280;5972;42.134;24.718;2023-02-12T02:40:17;100571.06;;;3.29;38.24
11830;BME280;5972;42.134;24.718;2023-02-12T02:42:50;100587.63;;;3.42;38.51
11830;BME280;5972;42.134;24.718;2023-02-12T02:45:25;100572.66;;;3.30;38.23
11830;BME280;5972;42.134;24.718;2023-02-12T02:47:57;100587.63;;;3.52;37.89
11830;BME280;5972;42.134;24.718;2023-02-12T02:50:27;100596.19;;;3.54;37.86
11830;BME280;5972;42.134;24.718;2023-02-12T02:52:58;100566.78;;;3.33;38.03
11830;BME280;5972;42.134;24.718;2023-02-12T02:55:31;100595.63;;;3.52;38.10
11830;BME280;5972;42.134;24.718;2023-02-12T02:58:04;100600.72;;;3.53;38.31
11830;BME280;5972;42.134;24.718;2023-02-12T03:00:39;100602.59;;;3.58;38.46
11830;BME280;5972;42.134;24.718;2023-02-12T03:03:10;100595.91;;;3.60;38.49
11830;BME280;5972;42.134;24.718;2023-02-12T03:05:42;100597.78;;;3.60;38.58
11830;BME280;5972;42.134;24.718;2023-02-12T03:08:14;100571.84;;;3.50;38.50
11830;BME280;5972;42.134;24.718;2023-02-12T03:10:47;100604.72;;;3.71;38.19
11830;BME280;5972;42.134;24.718;2023-02-12T03:13:21;100580.09;;;3.59;38.12
11830;BME280;5972;42.134;24.718;2023-02-12T03:15:55;100600.94;;;3.77;37.96
11830;BME280;5972;42.134;24.718;2023-02-12T03:18:26;100566.50;;;3.50;38.75
11830;BME280;5972;42.134;24.718;2023-02-12T03:20:58;100595.84;;;3.75;38.08
11830;BME280;5972;42.134;24.718;2023-02-12T03:23:29;100581.72;;;3.65;38.54
11830;BME280;5972;42.134;24.718;2023-02-12T03:26:06;100585.41;;;3.79;38.46
11830;BME280;5972;42.134;24.718;2023-02-12T03:28:36;100594.53;;;3.73;38.41
11830;BME280;5972;42.134;24.718;2023-02-12T03:31:10;100600.97;;;3.67;38.22
11830;BME280;5972;42.134;24.718;2023-02-12T03:33:45;100596.69;;;3.66;37.97
11830;BME280;5972;42.134;24.718;2023-02-12T03:36:25;100587.88;;;3.65;38.18
11830;BME280;5972;42.134;24.718;2023-02-12T03:38:56;100589.97;;;3.73;38.19
11830;BME280;5972;42.134;24.718;2023-02-12T03:41:36;100583.00;;;3.78;38.08
11830;BME280;5972;42.134;24.718;2023-02-12T03:44:13;100580.06;;;3.84;37.54
11830;BME280;5972;42.134;24.718;2023-02-12T03:46:49;100585.94;;;3.81;37.46
11830;BME280;5972;42.134;24.718;2023-02-12T03:49:21;100591.28;;;3.86;38.06
11830;BME280;5972;42.134;24.718;2023-02-12T03:51:50;100574.19;;;3.77;37.63
11830;BME280;5972;42.134;24.718;2023-02-12T03:54:19;100580.81;;;3.85;37.57
11830;BME280;5972;42.134;24.718;2023-02-12T03:56:50;100539.97;;;3.59;37.46
11830;BME280;5972;42.134;24.718;2023-02-12T03:59:20;100559.78;;;3.53;38.03
11830;BME280;5972;42.134;24.718;2023-02-12T04:01:50;100559.50;;;3.64;38.50
11830;BME280;5972;42.134;24.718;2023-02-12T04:04:17;100593.69;;;3.88;38.95
11830;BME280;5972;42.134;24.718;2023-02-12T04:06:45;100590.97;;;3.98;38.84
11830;BME280;5972;42.134;24.718;2023-02-12T04:09:14;100594.16;;;4.05;38.83
11830;BME280;5972;42.134;24.718;2023-02-12T04:11:50;100591.69;;;4.13;38.99
11830;BME280;5972;42.134;24.718;2023-02-12T04:14:24;100582.09;;;4.07;38.22
11830;BME280;5972;42.134;24.718;2023-02-12T04:16:59;100591.16;;;4.16;37.82
11830;BME280;5972;42.134;24.718;2023-02-12T04:19:33;100596.78;;;4.20;37.64
11830;BME280;5972;42.134;24.718;2023-02-12T04:22:28;100586.88;;;4.15;37.33
11830;BME280;5972;42.134;24.718;2023-02-12T04:25:09;100594.31;;;4.24;37.26
11830;BME280;5972;42.134;24.718;2023-02-12T04:27:46;100601.59;;;4.23;37.42
11830;BME280;5972;42.134;24.718;2023-02-12T04:30:20;100571.94;;;4.04;37.85
11830;BME280;5972;42.134;24.718;2023-02-12T04:32:54;100593.03;;;4.16;37.38
11830;BME280;5972;42.134;24.718;2023-02-12T04:35:26;100579.69;;;4.11;37.62
11830;BME280;5972;42.134;24.718;2023-02-12T04:38:02;100603.44;;;4.28;37.01
11830;BME280;5972;42.134;24.718;2023-02-12T04:40:34;100606.63;;;4.30;37.51
11830;BME280;5972;42.134;24.718;2023-02-12T04:43:01;100595.91;;;4.30;37.36
11830;BME280;5972;42.134;24.718;2023-02-12T04:45:29;100606.34;;;4.31;37.61
11830;BME280;5972;42.134;24.718;2023-02-12T04:47:58;100630.66;;;4.50;37.06
11830;BME280;5972;42.134;24.718;2023-02-12T04:50:26;100629.06;;;4.49;37.69
11830;BME280;5972;42.134;24.718;2023-02-12T04:52:55;100627.44;;;4.48;37.86
11830;BME280;5972;42.134;24.718;2023-02-12T04:55:22;100623.97;;;4.47;37.75
11830;BME280;5972;42.134;24.718;2023-02-12T04:57:49;100632.50;;;4.54;37.52
11830;BME280;5972;42.134;24.718;2023-02-12T05:00:16;100614.91;;;4.38;37.76
11830;BME280;5972;42.134;24.718;2023-02-12T05:02:43;100611.72;;;4.31;37.88
11830;BME280;5972;42.134;24.718;2023-02-12T05:05:11;100621.06;;;4.39;37.93
11830;BME280;5972;42.134;24.718;2023-02-12T05:07:38;100626.41;;;4.44;37.57
11830;BME280;5972;42.134;24.718;2023-02-12T05:10:06;100612.47;;;4.42;37.76
11830;BME280;5972;42.134;24.718;2023-02-12T05:12:33;100615.41;;;4.40;37.81
11830;BME280;5972;42.134;24.718;2023-02-12T05:15:00;100620.22;;;4.43;37.70
11830;BME280;5972;42.134;24.718;2023-02-12T05:17:26;100626.63;;;4.47;37.94
11830;BME280;5972;42.134;24.718;2023-02-12T05:19:53;100644.06;;;4.50;38.42
11830;BME280;5972;42.134;24.718;2023-02-12T05:22:22;100642.44;;;4.49;38.27
11830;BME280;5972;42.134;24.718;2023-02-12T05:24:48;100629.59;;;4.46;38.46
11830;BME280;5972;42.134;24.718;2023-02-12T05:27:15;100627.44;;;4.48;38.30
11830;BME280;5972;42.134;24.718;2023-02-12T05:29:42;100641.31;;;4.60;38.65
11830;BME280;5972;42.134;24.718;2023-02-12T05:32:09;100646.13;;;4.63;38.66
11830;BME280;5972;42.134;24.718;2023-02-12T05:34:36;100644.53;;;4.62;38.35
11830;BME280;5972;42.134;24.718;2023-02-12T05:37:03;100652.53;;;4.67;38.17
11830;BME280;5972;42.134;24.718;2023-02-12T05:39:31;100645.88;;;4.59;38.48
11830;BME280;5972;42.134;24.718;2023-02-12T05:41:58;100668.38;;;4.64;37.99
11830;BME280;5972;42.134;24.718;2023-02-12T05:44:25;100634.41;;;4.49;38.08
11830;BME280;5972;42.134;24.718;2023-02-12T05:46:52;100656.31;;;4.66;38.00
11830;BME280;5972;42.134;24.718;2023-02-12T05:49:18;100656.53;;;4.70;38.70
11830;BME280;5972;42.134;24.718;2023-02-12T05:51:45;100646.09;;;4.73;38.25
11830;BME280;5972;42.134;24.718;2023-02-12T05:54:12;100662.16;;;4.68;38.12
11830;BME280;5972;42.134;24.718;2023-02-12T05:56:44;100658.44;;;4.64;38.02
11830;BME280;5972;42.134;24.718;2023-02-12T05:59:13;100661.38;;;4.73;38.37
11830;BME280;5972;42.134;24.718;2023-02-12T06:01:42;100676.28;;;4.89;38.33
11830;BME280;5972;42.134;24.718;2023-02-12T06:04:12;100678.09;;;4.98;38.30
11830;BME280;5972;42.134;24.718;2023-02-12T06:06:39;100676.41;;;5.08;38.43
11830;BME280;5972;42.134;24.718;2023-02-12T06:09:07;100682.84;;;5.12;38.86
11830;BME280;5972;42.134;24.718;2023-02-12T06:11:34;100676.28;;;5.28;38.76
11830;BME280;5972;42.134;24.718;2023-02-12T06:14:03;100679.09;;;5.41;38.69
11830;BME280;5972;42.134;24.718;2023-02-12T06:16:30;100678.31;;;5.41;38.16
11830;BME280;5972;42.134;24.718;2023-02-12T06:19:01;100681.44;;;5.53;38.58
11830;BME280;5972;42.134;24.718;2023-02-12T06:21:29;100680.03;;;5.61;38.29
11830;BME280;5972;42.134;24.718;2023-02-12T06:23:56;100676.28;;;5.62;38.19
11830;BME280;5972;42.134;24.718;2023-02-12T06:26:23;100679.03;;;5.80;37.97
11830;BME280;5972;42.134;24.718;2023-02-12T06:28:50;100662.06;;;5.90;38.23
11830;BME280;5972;42.134;24.718;2023-02-12T06:31:22;100658.25;;;5.96;38.35
11830;BME280;5972;42.134;24.718;2023-02-12T06:33:50;100648.06;;;5.93;38.10
11830;BME280;5972;42.134;24.718;2023-02-12T06:36:17;100644.28;;;5.94;38.05
11830;BME280;5972;42.134;24.718;2023-02-12T06:38:44;100651.88;;;6.11;38.24
11830;BME280;5972;42.134;24.718;2023-02-12T06:41:11;100635.03;;;6.05;38.12
11830;BME280;5972;42.134;24.718;2023-02-12T06:43:38;100659.63;;;6.17;38.20
11830;BME280;5972;42.134;24.718;2023-02-12T06:46:05;100676.50;;;6.42;38.77
11830;BME280;5972;42.134;24.718;2023-02-12T06:48:34;100684.22;;;6.48;38.14
11830;BME280;5972;42.134;24.718;2023-02-12T06:51:04;100674.56;;;6.47;38.24
11830;BME280;5972;42.134;24.718;2023-02-12T06:53:32;100691.25;;;6.68;38.02
11830;BME280;5972;42.134;24.718;2023-02-12T06:55:59;100690.84;;;6.80;37.60
11830;BME280;5972;42.134;24.718;2023-02-12T06:58:26;100685.06;;;6.86;38.13
11830;BME280;5972;42.134;24.718;2023-02-12T07:00:53;100691.56;;;6.85;38.17
11830;BME280;5972;42.134;24.718;2023-02-12T07:03:20;100655.69;;;6.71;38.16
11830;BME280;5972;42.134;24.718;2023-02-12T07:05:48;100689.28;;;6.92;38.79
11830;BME280;5972;42.134;24.718;2023-02-12T07:08:15;100694.31;;;6.99;38.57
11830;BME280;5972;42.134;24.718;2023-02-12T07:10:42;100649.16;;;6.77;38.90
11830;BME280;5972;42.134;24.718;2023-02-12T07:13:08;100703.63;;;7.06;38.49
11830;BME280;5972;42.134;24.718;2023-02-12T07:15:38;100707.19;;;7.21;38.20
11830;BME280;5972;42.134;24.718;2023-02-12T07:18:05;100676.72;;;7.06;38.79
11830;BME280;5972;42.134;24.718;2023-02-12T07:20:31;100683.19;;;7.24;38.84
11830;BME280;5972;42.134;24.718;2023-02-12T07:23:00;100701.28;;;7.37;38.14
11830;BME280;5972;42.134;24.718;2023-02-12T07:25:29;100699.81;;;7.45;38.32
11830;BME280;5972;42.134;24.718;2023-02-12T07:27:56;100705.03;;;7.55;38.69
11830;BME280;5972;42.134;24.718;2023-02-12T07:30:23;100605.59;;;6.94;38.83
11830;BME280;5972;42.134;24.718;2023-02-12T07:32:49;100701.72;;;7.58;39.09
11830;BME280;5972;42.134;24.718;2023-02-12T07:35:16;100706.09;;;7.73;38.88
11830;BME280;5972;42.134;24.718;2023-02-12T07:37:43;100701.97;;;7.62;39.08
11830;BME280;5972;42.134;24.718;2023-02-12T07:40:11;100680.34;;;7.48;39.16
11830;BME280;5972;42.134;24.718;2023-02-12T07:42:44;100686.84;;;7.47;39.24
11830;BME280;5972;42.134;24.718;2023-02-12T07:45:11;100705.22;;;7.59;39.29
11830;BME280;5972;42.134;24.718;2023-02-12T07:47:38;100648.91;;;7.30;39.16
11830;BME280;5972;42.134;24.718;2023-02-12T07:50:08;100666.06;;;7.66;39.05
11830;BME280;5972;42.134;24.718;2023-02-12T07:52:35;100598.41;;;7.22;38.82
11830;BME280;5972;42.134;24.718;2023-02-12T07:55:02;100697.25;;;8.00;38.92
11830;BME280;5972;42.134;24.718;2023-02-12T07:57:30;100707.66;;;8.06;38.71
11830;BME280;5972;42.134;24.718;2023-02-12T08:00:06;100705.75;;;8.20;38.41
11830;BME280;5972;42.134;24.718;2023-02-12T08:02:36;100553.88;;;7.29;38.57
11830;BME280;5972;42.134;24.718;2023-02-12T08:05:09;100602.81;;;7.77;38.07
11830;BME280;5972;42.134;24.718;2023-02-12T08:07:39;100636.03;;;8.14;37.88
11830;BME280;5972;42.134;24.718;2023-02-12T08:10:07;100647.03;;;8.17;37.56
11830;BME280;5972;42.134;24.718;2023-02-12T08:12:35;100627.56;;;7.79;38.13
11830;BME280;5972;42.134;24.718;2023-02-12T08:15:02;100626.38;;;7.85;38.13
11830;BME280;5972;42.134;24.718;2023-02-12T08:17:34;100728.38;;;8.52;38.37
11830;BME280;5972;42.134;24.718;2023-02-12T08:20:01;100709.66;;;8.28;38.63
11830;BME280;5972;42.134;24.718;2023-02-12T08:22:27;100737.81;;;8.22;39.07
11830;BME280;5972;42.134;24.718;2023-02-12T08:24:54;100744.91;;;8.18;39.69
11830;BME280;5972;42.134;24.718;2023-02-12T08:27:21;100743.16;;;8.08;40.36
11830;BME280;5972;42.134;24.718;2023-02-12T08:29:52;100734.00;;;8.09;40.47
11830;BME280;5972;42.134;24.718;2023-02-12T08:32:19;100757.78;;;8.21;41.22
11830;BME280;5972;42.134;24.718;2023-02-12T08:34:46;100757.38;;;8.27;41.90
11830;BME280;5972;42.134;24.718;2023-02-12T08:37:13;100757.94;;;8.43;42.04
11830;BME280;5972;42.134;24.718;2023-02-12T08:39:51;100759.25;;;8.46;42.25
11830;BME280;5972;42.134;24.718;2023-02-12T08:42:20;100757.31;;;8.32;43.31
11830;BME280;5972;42.134;24.718;2023-02-12T08:45:00;100647.38;;;7.70;43.50
11830;BME280;5972;42.134;24.718;2023-02-12T08:47:29;100767.00;;;9.02;43.06
11830;BME280;5972;42.134;24.718;2023-02-12T08:50:16;100689.03;;;8.87;42.12
11830;BME280;5972;42.134;24.718;2023-02-12T08:52:49;100630.97;;;8.89;41.95
11830;BME280;5972;42.134;24.718;2023-02-12T08:55:16;100609.69;;;9.10;41.06
11830;BME280;5972;42.134;24.718;2023-02-12T08:57:57;100770.66;;;10.00;40.56
11830;BME280;5972;42.134;24.718;2023-02-12T09:00:29;100637.47;;;9.10;40.77
11830;BME280;5972;42.134;24.718;2023-02-12T09:03:18;100638.94;;;8.94;41.40
11830;BME280;5972;42.134;24.718;2023-02-12T09:05:57;100698.06;;;9.18;41.27
11830;BME280;5972;42.134;24.718;2023-02-12T09:08:31;100644.03;;;8.60;41.70
11830;BME280;5972;42.134;24.718;2023-02-12T09:11:03;100679.44;;;8.81;41.90
11830;BME280;5972;42.134;24.718;2023-02-12T09:13:35;100756.41;;;8.92;42.83
11830;BME280;5972;42.134;24.718;2023-02-12T09:16:08;100780.41;;;9.07;43.34
11830;BME280;5972;42.134;24.718;2023-02-12T09:18:35;100765.31;;;8.92;43.53
11830;BME280;5972;42.134;24.718;2023-02-12T09:21:07;100780.75;;;9.14;43.74
11830;BME280;5972;42.134;24.718;2023-02-12T09:23:36;100791.84;;;9.26;43.68
11830;BME280;5972;42.134;24.718;2023-02-12T09:26:06;100797.75;;;9.28;43.79
11830;BME280;5972;42.134;24.718;2023-02-12T09:28:34;100790.22;;;9.39;43.77
11830;BME280;5972;42.134;24.718;2023-02-12T09:31:05;100792.50;;;9.45;43.74
11830;BME280;5972;42.134;24.718;2023-02-12T09:33:32;100797.00;;;9.50;43.77
11830;BME280;5972;42.134;24.718;2023-02-12T09:36:01;100794.63;;;9.35;43.99
11830;BME280;5972;42.134;24.718;2023-02-12T09:38:28;100795.78;;;9.56;43.88
11830;BME280;5972;42.134;24.718;2023-02-12T09:41:17;100773.31;;;9.47;43.55
11830;BME280;5972;42.134;24.718;2023-02-12T09:43:52;100785.66;;;9.62;43.43
11830;BME280;5972;42.134;24.718;2023-02-12T09:46:28;100761.56;;;9.51;43.51
11830;BME280;5972;42.134;24.718;2023-02-12T09:49:02;100776.34;;;9.54;43.74
11830;BME280;5972;42.134;24.718;2023-02-12T09:51:33;100770.41;;;9.66;43.14
11830;BME280;5972;42.134;24.718;2023-02-12T09:54:04;100780.41;;;9.87;42.71
11830;BME280;5972;42.134;24.718;2023-02-12T09:56:33;100765.47;;;10.12;41.98
11830;BME280;5972;42.134;24.718;2023-02-12T09:59:03;100794.44;;;10.82;41.28
11830;BME280;5972;42.134;24.718;2023-02-12T10:01:33;100786.91;;;11.61;40.03
11830;BME280;5972;42.134;24.718;2023-02-12T10:04:00;100786.91;;;12.51;38.22
11830;BME280;5972;42.134;24.718;2023-02-12T10:06:35;100778.94;;;13.13;36.88
11830;BME280;5972;42.134;24.718;2023-02-12T10:09:30;100764.97;;;13.77;35.36
11830;BME280;5972;42.134;24.718;2023-02-12T10:12:04;100774.09;;;14.26;34.56
11830;BME280;5972;42.134;24.718;2023-02-12T10:14:58;100775.75;;;14.51;34.12
11830;BME280;5972;42.134;24.718;2023-02-12T10:17:37;100781.19;;;15.00;32.43
11830;BME280;5972;42.134;24.718;2023-02-12T10:21:00;100789.03;;;14.89;32.11
11830;BME280;5972;42.134;24.718;2023-02-12T10:26:34;100642.16;;;13.87;32.08
11830;BME280;5972;42.134;24.718;2023-02-12T10:29:14;100760.16;;;15.01;31.92
11830;BME280;5972;42.134;24.718;2023-02-12T10:31:44;100749.91;;;16.05;30.98
11830;BME280;5972;42.134;24.718;2023-02-12T10:34:17;100765.81;;;16.78;30.62
11830;BME280;5972;42.134;24.718;2023-02-12T10:36:47;100776.41;;;17.69;29.54
11830;BME280;5972;42.134;24.718;2023-02-12T10:39:20;100776.72;;;18.06;29.18
11830;BME280;5972;42.134;24.718;2023-02-12T10:41:53;100777.66;;;17.71;29.27
11830;BME280;5972;42.134;24.718;2023-02-12T10:44:21;100770.13;;;17.49;29.25
11830;BME280;5972;42.134;24.718;2023-02-12T10:46:48;100767.78;;;16.62;30.18
11830;BME280;5972;42.134;24.718;2023-02-12T10:49:18;100770.28;;;16.23;30.81
11830;BME280;5972;42.134;24.718;2023-02-12T10:51:57;100779.56;;;15.23;31.47
11830;BME280;5972;42.134;24.718;2023-02-12T10:54:36;100762.91;;;14.88;31.79
11830;BME280;5972;42.134;24.718;2023-02-12T10:57:14;100767.00;;;14.82;31.57
11830;BME280;5972;42.134;24.718;2023-02-12T10:59:44;100773.13;;;14.55;31.80
11830;BME280;5972;42.134;24.718;2023-02-12T11:02:20;100778.34;;;14.03;32.49
11830;BME280;5972;42.134;24.718;2023-02-12T11:04:48;100754.28;;;14.05;32.47
11830;BME280;5972;42.134;24.718;2023-02-12T11:07:16;100776.66;;;14.55;32.10
11830;BME280;5972;42.134;24.718;2023-02-12T11:09:44;100771.53;;;14.42;32.16
11830;BME280;5972;42.134;24.718;2023-02-12T11:12:30;100793.16;;;14.26;32.54
11830;BME280;5972;42.134;24.718;2023-02-12T11:15:00;100798.00;;;14.53;32.40
11830;BME280;5972;42.134;24.718;2023-02-12T11:17:32;100789.34;;;14.39;32.32
11830;BME280;5972;42.134;24.718;2023-02-12T11:20:20;100796.31;;;14.28;32.34
11830;BME280;5972;42.134;24.718;2023-02-12T11:22:50;100797.66;;;14.43;32.24
11830;BME280;5972;42.134;24.718;2023-02-12T11:25:18;100787.47;;;14.19;32.38
11830;BME280;5972;42.134;24.718;2023-02-12T11:27:58;100758.88;;;13.80;32.53
11830;BME280;5972;42.134;24.718;2023-02-12T11:30:26;100799.91;;;13.75;32.85
11830;BME280;5972;42.134;24.718;2023-02-12T11:32:53;100806.19;;;13.67;33.07
11830;BME280;5972;42.134;24.718;2023-02-12T11:35:22;100797.06;;;13.51;33.29
11830;BME280;5972;42.134;24.718;2023-02-12T11:37:53;100806.13;;;13.34;33.28
11830;BME280;5972;42.134;24.718;2023-02-12T11:40:23;100807.88;;;13.09;33.79
11830;BME280;5972;42.134;24.718;2023-02-12T11:42:52;100774.56;;;12.62;33.91
11830;BME280;5972;42.134;24.718;2023-02-12T11:45:22;100815.44;;;12.66;34.58
11830;BME280;5972;42.134;24.718;2023-02-12T11:47:51;100804.22;;;12.76;34.53
11830;BME280;5972;42.134;24.718;2023-02-12T11:50:24;100804.88;;;12.73;34.28
11830;BME280;5972;42.134;24.718;2023-02-12T11:52:55;100798.25;;;12.53;34.75
11830;BME280;5972;42.134;24.718;2023-02-12T11:55:36;100772.69;;;12.07;35.14
11830;BME280;5972;42.134;24.718;2023-02-12T11:58:17;100721.53;;;11.63;35.39
11830;BME280;5972;42.134;24.718;2023-02-12T12:00:52;100809.34;;;12.31;35.34
11830;BME280;5972;42.134;24.718;2023-02-12T12:03:25;100793.16;;;12.43;35.42
11830;BME280;5972;42.134;24.718;2023-02-12T12:05:57;100793.16;;;12.43;35.68
11830;BME280;5972;42.134;24.718;2023-02-12T12:08:28;100791.91;;;12.40;36.06
11830;BME280;5972;42.134;24.718;2023-02-12T12:11:00;100775.13;;;12.38;35.61
11830;BME280;5972;42.134;24.718;2023-02-12T12:13:38;100800.00;;;12.58;35.61
11830;BME280;5972;42.134;24.718;2023-02-12T12:16:10;100776.72;;;12.39;35.76
11830;BME280;5972;42.134;24.718;2023-02-12T12:18:58;100778.88;;;12.17;35.56
11830;BME280;5972;42.134;24.718;2023-02-12T12:21:53;100807.22;;;12.45;35.40
11830;BME280;5972;42.134;24.718;2023-02-12T12:24:27;100796.53;;;12.40;35.48
11830;BME280;5972;42.134;24.718;2023-02-12T12:27:00;100770.25;;;12.23;35.63
11830;BME280;5972;42.134;24.718;2023-02-12T12:29:46;100811.81;;;12.53;35.56
11830;BME280;5972;42.134;24.718;2023-02-12T12:32:19;100791.47;;;12.21;35.70
11830;BME280;5972;42.134;24.718;2023-02-12T12:34:47;100807.28;;;12.19;36.17
11830;BME280;5972;42.134;24.718;2023-02-12T12:37:26;100818.56;;;12.38;36.28
11830;BME280;5972;42.134;24.718;2023-02-12T12:40:06;100819.66;;;12.46;35.96
11830;BME280;5972;42.134;24.718;2023-02-12T12:42:57;100819.72;;;12.29;36.51
11830;BME280;5972;42.134;24.718;2023-02-12T12:45:57;100826.34;;;12.48;36.23
11830;BME280;5972;42.134;24.718;2023-02-12T12:48:49;100830.84;;;12.44;36.20
11830;BME280;5972;42.134;24.718;2023-02-12T12:51:29;100834.63;;;12.61;35.84
11830;BME280;5972;42.134;24.718;2023-02-12T12:54:23;100835.91;;;12.55;35.69
11830;BME280;5972;42.134;24.718;2023-02-12T12:57:02;100835.47;;;12.44;36.18
11830;BME280;5972;42.134;24.718;2023-02-12T12:59:49;100837.38;;;12.43;36.31
11830;BME280;5972;42.134;24.718;2023-02-12T13:05:56;100841.69;;;12.44;36.22
11830;BME280;5972;42.134;24.718;2023-02-12T13:08:50;100839.16;;;12.48;35.96
11830;BME280;5972;42.134;24.718;2023-02-12T13:11:30;100854.03;;;12.42;35.93
11830;BME280;5972;42.134;24.718;2023-02-12T13:14:07;100841.88;;;12.39;36.23
11830;BME280;5972;42.134;24.718;2023-02-12T13:16:45;100848.59;;;12.42;36.30
11830;BME280;5972;42.134;24.718;2023-02-12T13:19:18;100825.94;;;12.21;36.26
11830;BME280;5972;42.134;24.718;2023-02-12T13:21:55;100855.34;;;12.19;36.44
11830;BME280;5972;42.134;24.718;2023-02-12T13:24:32;100861.72;;;12.23;36.17
11830;BME280;5972;42.134;24.718;2023-02-12T13:27:05;100860.44;;;12.12;36.21
11830;BME280;5972;42.134;24.718;2023-02-12T13:29:37;100842.75;;;11.97;36.70